createdAt,value
2023-04-11T00:00:29.325Z,76.54
2023-04-11T00:03:00.091Z,76.84
2023-04-11T00:05:28.072Z,76.28
2023-04-11T00:07:54.587Z,76.43
2023-04-11T00:10:21.117Z,76.58
2023-04-11T00:12:47.637Z,77.56
2023-04-11T00:15:16.171Z,78.66
2023-04-11T00:17:45.782Z,78.05
2023-04-11T00:20:12.982Z,78.06
2023-04-11T00:22:39.527Z,77.74
2023-04-11T00:25:07.097Z,77.23
2023-04-11T00:27:33.539Z,76.68
2023-04-11T00:30:00.747Z,76.11
2023-04-11T00:32:27.649Z,75.95
2023-04-11T00:34:54.093Z,75.98
2023-04-11T00:37:21.502Z,75.91
2023-04-11T00:39:50.487Z,76.49
2023-04-11T00:42:17.130Z,75.86
2023-04-11T00:44:44.790Z,76.65
2023-04-11T00:47:12.057Z,77.68
2023-04-11T00:49:39.713Z,77.99
2023-04-11T00:52:07.092Z,78.33
2023-04-11T00:54:33.693Z,78.41
2023-04-11T00:57:04.387Z,78.76
2023-04-11T00:59:32.486Z,78.71
2023-04-11T01:01:59.851Z,79.36
2023-04-11T01:04:26.784Z,79.67
2023-04-11T01:06:59.063Z,79.96
2023-04-11T01:09:27.433Z,79.69
2023-04-11T01:11:54.252Z,79.71
2023-04-11T01:14:22.106Z,79.87
2023-04-11T01:16:50.799Z,79.98
2023-04-11T01:19:22.151Z,79.00
2023-04-11T01:21:50.442Z,78.64
2023-04-11T01:24:17.623Z,79.40
2023-04-11T01:26:44.656Z,79.04
2023-04-11T01:29:11.747Z,78.60
2023-04-11T01:31:38.548Z,78.93
2023-04-11T01:34:05.532Z,79.26
2023-04-11T01:36:32.268Z,78.47
2023-04-11T01:38:59.333Z,78.03
2023-04-11T01:41:29.434Z,78.08
2023-04-11T01:43:56.722Z,78.33
2023-04-11T01:46:25.118Z,78.39
2023-04-11T01:48:54.702Z,79.31
2023-04-11T01:51:21.533Z,78.95
2023-04-11T01:53:48.120Z,78.46
2023-04-11T01:56:14.814Z,78.40
2023-04-11T01:58:41.337Z,78.65
2023-04-11T02:01:08.073Z,78.48
2023-04-11T02:03:34.868Z,78.90
2023-04-11T02:06:01.623Z,78.80
2023-04-11T02:08:29.319Z,78.92
2023-04-11T02:10:55.777Z,79.28
2023-04-11T02:13:22.208Z,79.45
2023-04-11T02:15:48.768Z,79.88
2023-04-11T02:18:15.265Z,80.00
2023-04-11T02:20:41.668Z,79.65
2023-04-11T02:23:08.196Z,79.90
2023-04-11T02:25:34.644Z,80.04
2023-04-11T02:28:01.211Z,79.86
2023-04-11T02:30:27.696Z,80.01
2023-04-11T02:32:54.261Z,80.09
2023-04-11T02:35:20.783Z,80.56
2023-04-11T02:37:47.193Z,80.39
2023-04-11T02:40:13.799Z,80.01
2023-04-11T02:42:43.035Z,80.25
2023-04-11T02:45:10.286Z,79.60
2023-04-11T02:47:36.861Z,80.14
2023-04-11T02:50:06.815Z,80.27
2023-04-11T02:52:42.099Z,80.50
2023-04-11T02:55:10.210Z,79.91
2023-04-11T02:57:36.964Z,79.64
2023-04-11T03:00:07.206Z,80.05
2023-04-11T03:02:43.868Z,80.71
2023-04-11T03:05:11.713Z,80.84
2023-04-11T03:07:40.515Z,80.89
2023-04-11T03:10:09.075Z,80.63
2023-04-11T03:12:35.610Z,81.33
2023-04-11T03:15:04.917Z,81.07
2023-04-11T03:17:31.960Z,78.78
2023-04-11T03:19:58.828Z,78.39
2023-04-11T03:22:25.981Z,77.98
2023-04-11T03:24:52.530Z,77.56
2023-04-11T03:27:21.668Z,77.58
2023-04-11T03:29:52.917Z,78.27
2023-04-11T03:32:26.901Z,79.41
2023-04-11T03:34:53.477Z,79.31
2023-04-11T03:37:21.681Z,79.76
2023-04-11T03:39:48.325Z,79.73
2023-04-11T03:42:16.090Z,79.35
2023-04-11T03:44:42.593Z,78.60
2023-04-11T03:47:09.093Z,78.84
2023-04-11T03:49:40.785Z,78.42
2023-04-11T03:52:09.690Z,79.37
2023-04-11T03:54:37.629Z,78.87
2023-04-11T03:57:06.084Z,78.50
2023-04-11T03:59:34.238Z,78.51
2023-04-11T04:02:07.582Z,78.37
2023-04-11T04:04:38.944Z,78.03
2023-04-11T04:07:18.100Z,77.56
2023-04-11T04:09:44.655Z,77.90
2023-04-11T04:12:11.604Z,77.82
2023-04-11T04:15:03.638Z,77.64
2023-04-11T04:17:30.670Z,77.61
2023-04-11T04:19:58.379Z,77.69
2023-04-11T04:22:26.648Z,77.80
2023-04-11T04:24:58.286Z,78.26
2023-04-11T04:27:30.207Z,77.41
2023-04-11T04:30:03.774Z,77.04
2023-04-11T04:32:54.883Z,77.08
2023-04-11T04:35:22.785Z,76.62
2023-04-11T04:37:49.916Z,77.14
2023-04-11T04:40:38.027Z,76.49
2023-04-11T04:43:09.041Z,76.86
2023-04-11T04:45:41.541Z,76.55
2023-04-11T04:48:08.516Z,77.03
2023-04-11T04:50:35.484Z,76.82
2023-04-11T04:53:01.884Z,76.72
2023-04-11T04:55:28.781Z,76.53
2023-04-11T04:57:55.647Z,76.92
2023-04-11T05:00:23.312Z,76.97
2023-04-11T05:02:54.645Z,76.75
2023-04-11T05:05:21.674Z,77.04
2023-04-11T05:07:48.391Z,76.85
2023-04-11T05:10:15.727Z,76.64
2023-04-11T05:12:43.823Z,76.77
2023-04-11T05:15:12.385Z,76.69
2023-04-11T05:17:40.580Z,76.74
2023-04-11T05:20:09.071Z,76.64
2023-04-11T05:22:37.935Z,77.82
2023-04-11T05:25:05.442Z,77.98
2023-04-11T05:27:32.346Z,77.11
2023-04-11T05:30:00.576Z,77.49
2023-04-11T05:32:28.237Z,77.05
2023-04-11T05:34:59.131Z,76.40
2023-04-11T05:37:46.182Z,76.13
2023-04-11T05:40:12.787Z,76.14
2023-04-11T05:42:39.295Z,75.88
2023-04-11T05:45:06.429Z,75.71
2023-04-11T05:47:32.971Z,75.69
2023-04-11T05:49:59.819Z,75.75
2023-04-11T05:52:27.187Z,75.39
2023-04-11T05:54:53.755Z,75.84
2023-04-11T05:57:20.915Z,75.74
2023-04-11T05:59:49.845Z,75.23
2023-04-11T06:02:16.804Z,74.28
2023-04-11T06:04:43.472Z,74.37
2023-04-11T06:07:10.167Z,74.76
2023-04-11T06:09:36.768Z,74.13
2023-04-11T06:12:03.621Z,74.75
2023-04-11T06:14:30.069Z,74.37
2023-04-11T06:16:56.591Z,72.37
2023-04-11T06:19:22.997Z,69.91
2023-04-11T06:21:49.552Z,67.65
2023-04-11T06:24:18.537Z,66.36
2023-04-11T06:26:46.573Z,66.26
2023-04-11T06:29:13.059Z,66.36
2023-04-11T06:31:39.834Z,66.79
2023-04-11T06:34:06.360Z,66.68
2023-04-11T06:36:33.046Z,66.67
2023-04-11T06:38:59.487Z,67.30
2023-04-11T06:41:25.890Z,65.59
2023-04-11T06:43:52.371Z,63.89
2023-04-11T06:46:18.924Z,62.57
2023-04-11T06:48:45.346Z,60.68
2023-04-11T06:51:11.914Z,58.76
2023-04-11T06:53:38.407Z,57.84
2023-04-11T06:56:05.571Z,57.84
2023-04-11T06:58:32.040Z,56.76
2023-04-11T07:00:58.760Z,56.37
2023-04-11T07:03:25.356Z,54.01
2023-04-11T07:05:52.356Z,52.88
2023-04-11T07:08:18.794Z,52.83
2023-04-11T07:10:45.238Z,51.84
2023-04-11T07:13:11.699Z,50.82
2023-04-11T07:15:38.150Z,50.20
2023-04-11T07:18:04.717Z,51.10
2023-04-11T07:20:32.973Z,53.01
2023-04-11T07:22:59.468Z,53.03
2023-04-11T07:25:27.146Z,53.53
2023-04-11T07:27:53.693Z,51.83
2023-04-11T07:30:20.270Z,49.86
2023-04-11T07:32:47.066Z,49.17
2023-04-11T07:35:14.242Z,47.97
2023-04-11T07:37:42.285Z,47.00
2023-04-11T07:40:14.026Z,46.87
2023-04-11T07:42:41.307Z,46.64
2023-04-11T07:45:08.492Z,45.78
2023-04-11T07:47:34.965Z,44.47
2023-04-11T07:50:01.943Z,43.06
2023-04-11T07:52:28.652Z,43.77
2023-04-11T07:54:55.814Z,43.60
2023-04-11T07:57:22.451Z,43.65
2023-04-11T07:59:48.894Z,42.61
2023-04-11T08:02:15.404Z,43.66
2023-04-11T08:04:42.196Z,44.45
2023-04-11T08:07:08.766Z,43.23
2023-04-11T08:09:35.778Z,44.01
2023-04-11T08:12:02.336Z,46.10
2023-04-11T08:14:28.826Z,44.85
2023-04-11T08:16:55.289Z,44.36
2023-04-11T08:19:21.941Z,44.61
2023-04-11T08:21:48.448Z,43.98
2023-04-11T08:24:14.945Z,43.55
2023-04-11T08:26:41.489Z,42.34
2023-04-11T08:29:11.335Z,42.77
2023-04-11T08:31:45.591Z,42.95
2023-04-11T08:34:12.825Z,43.40
2023-04-11T08:36:39.400Z,43.74
2023-04-11T08:39:06.674Z,44.49
2023-04-11T08:41:33.465Z,45.14
2023-04-11T08:44:00.579Z,44.74
2023-04-11T08:46:27.212Z,43.62
2023-04-11T08:48:53.788Z,44.74
2023-04-11T08:51:24.868Z,44.42
2023-04-11T08:53:53.923Z,43.93
2023-04-11T08:56:20.594Z,43.96
2023-04-11T08:58:47.996Z,44.64
2023-04-11T09:01:35.047Z,45.24
2023-04-11T09:04:05.366Z,44.81
2023-04-11T09:06:33.673Z,44.09
2023-04-11T09:09:01.857Z,44.39
2023-04-11T09:11:28.335Z,44.59
2023-04-11T09:14:09.318Z,42.13
2023-04-11T09:16:36.321Z,41.29
2023-04-11T09:19:03.071Z,41.27
2023-04-11T09:21:31.067Z,41.56
2023-04-11T09:24:17.947Z,41.23
2023-04-11T09:26:44.405Z,41.22
2023-04-11T09:29:11.038Z,41.39
2023-04-11T09:31:43.095Z,40.62
2023-04-11T09:34:09.851Z,39.53
2023-04-11T09:36:36.476Z,40.00
2023-04-11T09:39:17.182Z,40.42
2023-04-11T09:41:43.975Z,40.90
2023-04-11T09:44:10.543Z,42.06
2023-04-11T09:46:37.454Z,42.27
2023-04-11T09:49:04.374Z,40.68
2023-04-11T09:51:35.761Z,40.52
2023-04-11T09:54:04.648Z,40.53
2023-04-11T09:56:31.759Z,41.03
2023-04-11T09:59:00.131Z,41.36
2023-04-11T10:01:27.439Z,42.18
2023-04-11T10:03:56.151Z,41.88
2023-04-11T10:06:31.254Z,40.90
2023-04-11T10:09:10.841Z,41.77
2023-04-11T10:11:40.196Z,41.54
2023-04-11T10:14:06.666Z,43.72
2023-04-11T10:16:34.288Z,44.69
2023-04-11T10:19:01.105Z,44.66
2023-04-11T10:21:27.758Z,44.52
2023-04-11T10:24:17.766Z,44.63
2023-04-11T10:26:52.124Z,44.83
2023-04-11T10:29:33.834Z,44.01
2023-04-11T10:32:11.565Z,44.05
2023-04-11T10:35:01.481Z,44.79
2023-04-11T10:37:35.623Z,43.98
2023-04-11T10:40:02.006Z,44.60
2023-04-11T10:42:36.599Z,44.07
2023-04-11T10:45:40.468Z,44.99
2023-04-11T10:48:11.696Z,45.29
2023-04-11T10:50:44.449Z,45.28
2023-04-11T10:53:36.536Z,48.32
2023-04-11T10:56:03.258Z,50.44
2023-04-11T10:58:39.282Z,50.39
2023-04-11T11:01:21.290Z,50.37
2023-04-11T11:03:59.640Z,52.23
2023-04-11T11:06:26.526Z,52.98
2023-04-11T11:08:53.125Z,54.10
2023-04-11T11:11:19.773Z,54.25
2023-04-11T11:13:48.147Z,51.79
2023-04-11T11:16:23.149Z,52.89
2023-04-11T11:18:53.675Z,51.83
2023-04-11T11:21:27.668Z,50.35
2023-04-11T11:24:02.546Z,51.22
2023-04-11T11:26:56.221Z,49.80
2023-04-11T11:29:35.702Z,49.26
2023-04-11T11:32:05.522Z,48.74
2023-04-11T11:34:34.409Z,46.84
2023-04-11T11:37:06.793Z,48.19
2023-04-11T11:39:35.361Z,47.86
2023-04-11T11:42:02.365Z,48.33
2023-04-11T11:44:31.066Z,46.85
2023-04-11T11:47:17.354Z,43.90
2023-04-11T11:49:47.638Z,42.41
2023-04-11T11:52:31.759Z,42.04
2023-04-11T11:54:58.743Z,42.02
2023-04-11T11:57:25.918Z,42.16
2023-04-11T11:59:56.345Z,43.41
2023-04-11T12:02:27.374Z,42.38
2023-04-11T12:04:59.933Z,40.13
2023-04-11T12:07:27.118Z,38.17
2023-04-11T12:10:19.790Z,38.62
2023-04-11T12:12:53.105Z,37.57
2023-04-11T12:15:23.208Z,38.85
2023-04-11T12:17:54.224Z,39.42
2023-04-11T12:20:25.063Z,37.60
2023-04-11T12:22:54.136Z,37.73
2023-04-11T12:25:22.221Z,37.74
2023-04-11T12:27:48.941Z,38.88
2023-04-11T12:30:15.569Z,40.61
2023-04-11T12:32:42.514Z,40.73
2023-04-11T12:35:10.499Z,41.31
2023-04-11T12:37:37.710Z,38.36
2023-04-11T12:40:12.066Z,39.25
2023-04-11T12:42:53.254Z,39.74
2023-04-11T12:45:23.281Z,39.67
2023-04-11T12:47:49.832Z,40.18
2023-04-11T12:50:16.462Z,40.07
2023-04-11T12:52:43.205Z,40.19
2023-04-11T12:55:10.006Z,39.61
2023-04-11T12:57:36.746Z,39.86
2023-04-11T13:00:07.685Z,39.58
2023-04-11T13:02:42.178Z,39.94
2023-04-11T13:05:11.898Z,39.18
2023-04-11T13:07:39.133Z,38.12
2023-04-11T13:10:09.195Z,38.59
2023-04-11T13:12:44.458Z,38.95
2023-04-11T13:15:13.354Z,38.72
2023-04-11T13:17:40.211Z,37.21
2023-04-11T13:20:10.298Z,35.61
2023-04-11T13:22:38.068Z,35.69
2023-04-11T13:25:04.986Z,36.49
2023-04-11T13:27:32.018Z,36.63
2023-04-11T13:29:58.492Z,36.30
2023-04-11T13:32:25.153Z,38.41
2023-04-11T13:34:51.605Z,38.50
2023-04-11T13:37:18.155Z,39.09
2023-04-11T13:39:44.600Z,39.58
2023-04-11T13:42:11.690Z,38.83
2023-04-11T13:44:38.134Z,38.67
2023-04-11T13:47:04.775Z,38.21
2023-04-11T13:49:31.199Z,39.01
2023-04-11T13:51:57.805Z,39.26
2023-04-11T13:54:24.363Z,38.90
2023-04-11T13:56:51.022Z,39.06
2023-04-11T13:59:17.449Z,38.57
2023-04-11T14:01:44.201Z,37.76
2023-04-11T14:04:11.775Z,37.80
2023-04-11T14:06:39.374Z,38.88
2023-04-11T14:09:05.910Z,37.40
2023-04-11T14:11:32.483Z,37.43
2023-04-11T14:13:59.030Z,38.00
2023-04-11T14:16:25.656Z,38.05
2023-04-11T14:18:52.150Z,37.39
2023-04-11T14:21:18.885Z,36.71
2023-04-11T14:23:45.369Z,38.51
2023-04-11T14:26:11.817Z,38.41
2023-04-11T14:28:38.363Z,37.52
2023-04-11T14:31:05.133Z,36.57
2023-04-11T14:33:32.192Z,36.59
2023-04-11T14:35:58.812Z,36.08
2023-04-11T14:38:25.337Z,35.36
2023-04-11T14:40:51.858Z,35.65
2023-04-11T14:43:18.316Z,37.12
2023-04-11T14:45:44.774Z,36.57
2023-04-11T14:48:11.701Z,36.90
2023-04-11T14:50:38.157Z,37.34
2023-04-11T14:53:04.579Z,36.97
2023-04-11T14:55:31.118Z,36.23
2023-04-11T14:57:57.573Z,35.15
2023-04-11T15:00:24.952Z,35.38
2023-04-11T15:02:53.882Z,34.28
2023-04-11T15:05:21.668Z,35.47
2023-04-11T15:07:49.898Z,34.62
2023-04-11T15:10:18.785Z,35.14
2023-04-11T15:12:45.775Z,34.85
2023-04-11T15:15:12.785Z,35.05
2023-04-11T15:17:45.586Z,34.99
2023-04-11T15:20:14.279Z,35.37
2023-04-11T15:22:49.872Z,36.51
2023-04-11T15:25:16.700Z,35.60
2023-04-11T15:27:43.792Z,35.49
2023-04-11T15:30:11.259Z,36.01
2023-04-11T15:32:43.372Z,35.56
2023-04-11T15:35:10.627Z,35.53
2023-04-11T15:37:37.208Z,35.30
2023-04-11T15:40:06.554Z,35.28
2023-04-11T15:42:35.318Z,35.32
2023-04-11T15:45:02.559Z,35.26
2023-04-11T15:51:35.594Z,35.54
2023-04-11T15:54:02.084Z,35.66
2023-04-11T15:56:28.587Z,34.38
2023-04-11T15:58:55.462Z,34.93
2023-04-11T16:01:23.353Z,36.25
2023-04-11T16:03:50.260Z,34.89
2023-04-11T16:06:18.554Z,35.32
2023-04-11T16:08:45.423Z,35.06
2023-04-11T16:11:11.941Z,35.02
2023-04-11T16:13:38.393Z,34.48
2023-04-11T16:16:05.324Z,34.38
2023-04-11T16:18:31.777Z,34.08
2023-04-11T16:20:58.232Z,34.88
2023-04-11T16:23:24.698Z,35.48
2023-04-11T16:25:51.143Z,35.64
2023-04-11T16:28:17.574Z,35.26
2023-04-11T16:30:44.011Z,35.82
2023-04-11T16:33:10.553Z,35.88
2023-04-11T16:35:37.022Z,36.18
2023-04-11T16:38:04.229Z,36.59
2023-04-11T16:40:31.732Z,37.37
2023-04-11T16:42:58.151Z,37.18
2023-04-11T16:45:24.747Z,37.34
2023-04-11T16:47:51.187Z,37.37
2023-04-11T16:50:17.970Z,37.13
2023-04-11T16:52:44.460Z,37.53
2023-04-11T16:55:11.106Z,37.71
2023-04-11T16:57:37.566Z,38.04
2023-04-11T17:00:10.054Z,38.32
2023-04-11T17:02:36.542Z,38.19
2023-04-11T17:05:04.334Z,37.99
2023-04-11T17:07:31.322Z,38.24
2023-04-11T17:09:57.875Z,38.69
2023-04-11T17:12:24.304Z,38.47
2023-04-11T17:14:52.481Z,39.20
2023-04-11T17:17:20.557Z,38.99
2023-04-11T17:19:47.028Z,39.33
2023-04-11T17:22:13.488Z,39.24
2023-04-11T17:24:40.567Z,39.53
2023-04-11T17:27:06.993Z,39.65
2023-04-11T17:29:33.445Z,53.75
2023-04-11T17:31:59.858Z,41.60
2023-04-11T17:34:26.429Z,40.32
2023-04-11T17:36:52.831Z,40.59
2023-04-11T17:39:19.561Z,41.03
2023-04-11T17:41:46.803Z,40.64
2023-04-11T17:44:13.665Z,40.96
2023-04-11T17:46:40.138Z,41.46
2023-04-11T17:49:06.632Z,41.54
2023-04-11T17:51:33.106Z,41.66
2023-04-11T17:53:59.740Z,41.95
2023-04-11T17:56:26.970Z,42.08
2023-04-11T17:58:53.581Z,42.55
2023-04-11T18:01:20.666Z,42.55
2023-04-11T18:03:47.411Z,42.78
2023-04-11T18:06:13.978Z,43.10
2023-04-11T18:08:49.660Z,43.72
2023-04-11T18:11:16.662Z,43.82
2023-04-11T18:13:43.767Z,43.66
2023-04-11T18:16:10.825Z,43.97
2023-04-11T18:18:37.442Z,44.12
2023-04-11T18:21:06.646Z,43.97
2023-04-11T18:23:34.010Z,44.25
2023-04-11T18:26:00.502Z,44.37
2023-04-11T18:28:26.924Z,44.85
2023-04-11T18:30:53.453Z,45.06
2023-04-11T18:33:20.946Z,44.78
2023-04-11T18:35:47.878Z,45.36
2023-04-11T18:38:14.759Z,45.62
2023-04-11T18:40:41.265Z,45.71
2023-04-11T18:43:08.205Z,46.30
2023-04-11T18:45:35.335Z,46.40
2023-04-11T18:48:02.188Z,46.39
2023-04-11T18:50:30.612Z,47.15
2023-04-11T18:53:01.342Z,47.06
2023-04-11T18:55:31.355Z,47.50
2023-04-11T18:57:59.990Z,47.41
2023-04-11T19:00:28.613Z,47.64
2023-04-11T19:02:55.340Z,47.89
2023-04-11T19:05:25.082Z,48.01
2023-04-11T19:07:52.019Z,47.95
2023-04-11T19:10:18.585Z,47.90
2023-04-11T19:12:45.171Z,48.31
2023-04-11T19:15:12.212Z,48.25
2023-04-11T19:17:38.841Z,48.86
2023-04-11T19:20:12.919Z,48.83
2023-04-11T19:22:40.908Z,49.36
2023-04-11T19:25:10.501Z,48.88
2023-04-11T19:27:40.035Z,48.84
2023-04-11T19:30:08.464Z,48.85
2023-04-11T19:32:38.369Z,49.01
2023-04-11T19:35:08.650Z,49.10
2023-04-11T19:37:36.269Z,48.98
2023-04-11T19:40:16.633Z,49.33
2023-04-11T19:42:44.309Z,49.63
2023-04-11T19:45:11.435Z,49.32
2023-04-11T19:47:39.744Z,49.33
2023-04-11T19:50:09.231Z,49.48
2023-04-11T19:52:35.669Z,49.96
2023-04-11T19:55:02.238Z,49.94
2023-04-11T19:57:29.053Z,50.17
2023-04-11T19:59:55.629Z,50.24
2023-04-11T20:02:22.225Z,50.41
2023-04-11T20:04:49.443Z,51.34
2023-04-11T20:07:16.344Z,51.23
2023-04-11T20:09:42.887Z,51.31
2023-04-11T20:12:09.456Z,51.56
2023-04-11T20:14:37.860Z,51.45
2023-04-11T20:17:05.562Z,52.10
2023-04-11T20:19:33.148Z,52.17
2023-04-11T20:22:00.768Z,52.13
2023-04-11T20:24:27.727Z,51.31
2023-04-11T20:26:54.327Z,51.01
2023-04-11T20:29:24.581Z,51.54
2023-04-11T20:31:51.008Z,51.89
2023-04-11T20:34:17.430Z,51.59
2023-04-11T20:36:44.529Z,52.35
2023-04-11T20:39:10.990Z,52.76
2023-04-11T20:41:40.242Z,52.51
2023-04-11T20:44:06.813Z,53.12
2023-04-11T20:46:33.501Z,53.28
2023-04-11T20:48:59.987Z,53.43
2023-04-11T20:51:26.604Z,52.82
2023-04-11T20:53:53.081Z,53.34
2023-04-11T20:56:19.524Z,52.21
2023-04-11T20:58:46.496Z,51.89
2023-04-11T21:01:13.428Z,51.79
2023-04-11T21:03:42.429Z,52.91
2023-04-11T21:06:10.207Z,51.94
2023-04-11T21:08:37.335Z,53.11
2023-04-11T21:11:05.597Z,52.11
2023-04-11T21:13:32.177Z,52.86
2023-04-11T21:15:58.806Z,52.73
2023-04-11T21:18:25.472Z,52.62
2023-04-11T21:20:51.870Z,53.22
2023-04-11T21:23:18.504Z,54.00
2023-04-11T21:25:44.881Z,53.73
2023-04-11T21:28:11.331Z,53.45
2023-04-11T21:30:39.345Z,53.46
2023-04-11T21:33:05.930Z,53.12
2023-04-11T21:35:32.449Z,53.88
2023-04-11T21:37:58.857Z,53.75
2023-04-11T21:40:25.336Z,54.57
2023-04-11T21:42:51.849Z,55.18
2023-04-11T21:45:18.388Z,54.96
2023-04-11T21:47:44.913Z,55.09
2023-04-11T21:50:11.556Z,55.89
2023-04-11T21:52:38.098Z,56.09
2023-04-11T21:55:07.229Z,56.08
2023-04-11T21:57:35.690Z,56.17
2023-04-11T22:00:02.211Z,55.93
2023-04-11T22:02:38.867Z,55.94
2023-04-11T22:05:08.729Z,56.09
2023-04-11T22:07:46.113Z,56.18
2023-04-11T22:10:13.014Z,56.58
2023-04-11T22:12:40.538Z,56.61
2023-04-11T22:15:07.831Z,56.74
2023-04-11T22:17:34.484Z,56.61
2023-04-11T22:20:00.955Z,57.27
2023-04-11T22:22:30.430Z,57.49
2023-04-11T22:24:59.866Z,57.64
2023-04-11T22:27:27.202Z,57.79
2023-04-11T22:29:56.062Z,58.54
2023-04-11T22:32:23.900Z,59.00
2023-04-11T22:34:50.482Z,58.27
2023-04-11T22:37:17.123Z,58.30
2023-04-11T22:39:43.648Z,58.83
2023-04-11T22:42:11.582Z,59.55
2023-04-11T22:44:38.256Z,59.51
2023-04-11T22:47:07.038Z,59.30
2023-04-11T22:49:42.920Z,59.31
2023-04-11T22:52:14.988Z,59.64
2023-04-11T22:54:42.573Z,59.61
2023-04-11T22:57:09.372Z,59.69
2023-04-11T22:59:36.720Z,58.87
2023-04-11T23:02:03.420Z,58.20
2023-04-11T23:04:31.421Z,58.33
2023-04-11T23:06:58.117Z,59.01
2023-04-11T23:09:24.542Z,59.70
2023-04-11T23:11:52.223Z,58.93
2023-04-11T23:14:20.807Z,59.69
2023-04-11T23:16:47.253Z,60.11
2023-04-11T23:19:13.948Z,59.35
2023-04-11T23:21:41.058Z,58.01
2023-04-11T23:24:07.608Z,58.63
2023-04-11T23:26:34.037Z,58.75
2023-04-11T23:29:02.216Z,58.62
2023-04-11T23:31:29.197Z,58.68
2023-04-11T23:33:56.962Z,59.24
2023-04-11T23:36:23.711Z,59.97
2023-04-11T23:38:50.187Z,60.47
2023-04-11T23:41:16.633Z,61.27
2023-04-11T23:43:43.109Z,62.61
2023-04-11T23:46:17.872Z,63.16
2023-04-11T23:48:44.823Z,62.98
2023-04-11T23:51:11.306Z,64.10
2023-04-11T23:53:37.926Z,64.84
2023-04-11T23:56:04.651Z,64.23
2023-04-11T23:58:31.182Z,65.02
